sensor_id;sensor_type;location;lat;lon;timestamp;pressure;altitude;pressure_sealevel;temperature;humidity
42247;BME280;27913;42.722;23.268;2023-05-12T00:03:26;95101.63;;;8.84;79.43
42247;BME280;27913;42.722;23.268;2023-05-12T00:05:51;95143.78;;;9.06;79.57
42247;BME280;27913;42.722;23.268;2023-05-12T00:08:18;95215.50;;;9.53;79.55
42247;BME280;27913;42.722;23.268;2023-05-12T00:10:43;95096.25;;;8.77;78.79
42247;BME280;27913;42.722;23.268;2023-05-12T00:13:08;95092.19;;;8.75;78.78
42247;BME280;27913;42.722;23.268;2023-05-12T00:15:35;95085.63;;;8.70;78.54
42247;BME280;27913;42.722;23.268;2023-05-12T00:18:01;95237.25;;;9.62;77.86
42247;BME280;27913;42.722;23.268;2023-05-12T00:20:27;95152.63;;;9.05;77.98
42247;BME280;27913;42.722;23.268;2023-05-12T00:22:52;95244.47;;;9.60;78.23
42247;BME280;27913;42.722;23.268;2023-05-12T00:25:18;95248.56;;;9.63;78.28
42247;BME280;27913;42.722;23.268;2023-05-12T00:27:43;95219.63;;;9.48;77.48
42247;BME280;27913;42.722;23.268;2023-05-12T00:30:09;95241.22;;;9.58;77.44
42247;BME280;27913;42.722;23.268;2023-05-12T00:32:35;95242.69;;;9.61;77.46
42247;BME280;27913;42.722;23.268;2023-05-12T00:35:00;95186.88;;;9.12;78.15
42247;BME280;27913;42.722;23.268;2023-05-12T00:37:26;95088.47;;;8.52;78.62
42247;BME280;27913;42.722;23.268;2023-05-12T00:39:51;95244.53;;;9.52;78.33
42247;BME280;27913;42.722;23.268;2023-05-12T00:42:17;95251.47;;;9.45;78.21
42247;BME280;27913;42.722;23.268;2023-05-12T00:44:42;95220.25;;;9.26;78.69
42247;BME280;27913;42.722;23.268;2023-05-12T00:47:08;95115.69;;;8.60;79.34
42247;BME280;27913;42.722;23.268;2023-05-12T00:49:33;95246.47;;;9.35;79.06
42247;BME280;27913;42.722;23.268;2023-05-12T00:52:01;95246.78;;;9.32;79.44
42247;BME280;27913;42.722;23.268;2023-05-12T00:54:27;95262.06;;;9.28;80.33
42247;BME280;27913;42.722;23.268;2023-05-12T00:56:53;95052.88;;;8.03;79.95
42247;BME280;27913;42.722;23.268;2023-05-12T00:59:19;95129.03;;;8.41;80.88
42247;BME280;27913;42.722;23.268;2023-05-12T01:01:47;95136.53;;;8.44;80.91
42247;BME280;27913;42.722;23.268;2023-05-12T01:04:13;95256.03;;;9.19;81.25
42247;BME280;27913;42.722;23.268;2023-05-12T01:06:43;95223.16;;;9.00;81.71
42247;BME280;27913;42.722;23.268;2023-05-12T01:09:09;95135.06;;;8.42;82.28
42247;BME280;27913;42.722;23.268;2023-05-12T01:11:35;95021.25;;;7.64;82.38
42247;BME280;27913;42.722;23.268;2023-05-12T01:14:00;95206.69;;;8.82;83.18
42247;BME280;27913;42.722;23.268;2023-05-12T01:16:30;95074.50;;;7.88;83.27
42247;BME280;27913;42.722;23.268;2023-05-12T01:19:00;95202.50;;;8.65;84.47
42247;BME280;27913;42.722;23.268;2023-05-12T01:21:29;95254.31;;;9.03;85.17
42247;BME280;27913;42.722;23.268;2023-05-12T01:23:58;95240.44;;;8.86;85.35
42247;BME280;27913;42.722;23.268;2023-05-12T01:26:26;95215.78;;;8.63;85.84
42247;BME280;27913;42.722;23.268;2023-05-12T01:28:54;95259.69;;;8.69;86.98
42247;BME280;27913;42.722;23.268;2023-05-12T01:31:20;95261.53;;;8.61;87.34
42247;BME280;27913;42.722;23.268;2023-05-12T01:33:46;95265.28;;;8.50;88.95
42247;BME280;27913;42.722;23.268;2023-05-12T01:36:11;95269.53;;;8.51;89.50
42247;BME280;27913;42.722;23.268;2023-05-12T01:38:38;95214.56;;;8.26;90.94
42247;BME280;27913;42.722;23.268;2023-05-12T01:41:03;95212.59;;;8.19;90.36
42247;BME280;27913;42.722;23.268;2023-05-12T01:43:30;95149.16;;;7.76;91.02
42247;BME280;27913;42.722;23.268;2023-05-12T01:45:55;95263.81;;;8.39;91.55
42247;BME280;27913;42.722;23.268;2023-05-12T01:48:20;95234.22;;;8.13;92.36
42247;BME280;27913;42.722;23.268;2023-05-12T01:50:46;95265.63;;;8.30;92.51
42247;BME280;27913;42.722;23.268;2023-05-12T01:53:11;95263.34;;;8.27;93.56
42247;BME280;27913;42.722;23.268;2023-05-12T01:55:37;95212.28;;;7.89;94.96
42247;BME280;27913;42.722;23.268;2023-05-12T01:58:02;95168.47;;;7.75;96.02
42247;BME280;27913;42.722;23.268;2023-05-12T02:00:28;95259.09;;;8.26;96.32
42247;BME280;27913;42.722;23.268;2023-05-12T02:02:53;95237.66;;;8.14;96.60
42247;BME280;27913;42.722;23.268;2023-05-12T02:05:19;95122.66;;;7.45;97.55
42247;BME280;27913;42.722;23.268;2023-05-12T02:07:44;95028.50;;;6.79;97.32
42247;BME280;27913;42.722;23.268;2023-05-12T02:10:10;95229.81;;;8.05;97.96
42247;BME280;27913;42.722;23.268;2023-05-12T02:12:36;95259.25;;;8.24;98.51
42247;BME280;27913;42.722;23.268;2023-05-12T02:15:01;95118.59;;;7.43;98.89
42247;BME280;27913;42.722;23.268;2023-05-12T02:17:27;95247.78;;;8.25;99.89
42247;BME280;27913;42.722;23.268;2023-05-12T02:19:53;95262.03;;;8.22;99.58
42247;BME280;27913;42.722;23.268;2023-05-12T02:22:18;95212.97;;;7.91;99.84
42247;BME280;27913;42.722;23.268;2023-05-12T02:24:43;95152.09;;;7.56;100.00
42247;BME280;27913;42.722;23.268;2023-05-12T02:27:09;95091.75;;;7.16;99.83
42247;BME280;27913;42.722;23.268;2023-05-12T02:29:34;95260.41;;;8.05;98.51
42247;BME280;27913;42.722;23.268;2023-05-12T02:32:01;95256.97;;;7.96;99.04
42247;BME280;27913;42.722;23.268;2023-05-12T02:34:27;95259.59;;;7.96;100.00
42247;BME280;27913;42.722;23.268;2023-05-12T02:36:52;95256.00;;;7.97;100.00
42247;BME280;27913;42.722;23.268;2023-05-12T02:39:18;95252.56;;;7.96;100.00
42247;BME280;27913;42.722;23.268;2023-05-12T02:41:44;95256.03;;;7.89;100.00
42247;BME280;27913;42.722;23.268;2023-05-12T02:44:09;95255.84;;;7.90;100.00
42247;BME280;27913;42.722;23.268;2023-05-12T02:46:34;95080.47;;;6.82;100.00
42247;BME280;27913;42.722;23.268;2023-05-12T02:49:00;95245.53;;;7.72;99.68
42247;BME280;27913;42.722;23.268;2023-05-12T02:51:25;95244.88;;;7.78;99.56
42247;BME280;27913;42.722;23.268;2023-05-12T02:53:51;95135.22;;;6.92;100.00
42247;BME280;27913;42.722;23.268;2023-05-12T02:56:16;95202.97;;;7.36;100.00
42247;BME280;27913;42.722;23.268;2023-05-12T02:58:42;95234.06;;;7.65;100.00
42247;BME280;27913;42.722;23.268;2023-05-12T03:01:07;95125.09;;;6.88;100.00
42247;BME280;27913;42.722;23.268;2023-05-12T03:03:33;95266.63;;;7.70;100.00
42247;BME280;27913;42.722;23.268;2023-05-12T03:05:58;95079.44;;;6.58;100.00
42247;BME280;27913;42.722;23.268;2023-05-12T03:08:24;95217.53;;;7.31;100.00
42247;BME280;27913;42.722;23.268;2023-05-12T03:10:49;95275.28;;;7.63;100.00
42247;BME280;27913;42.722;23.268;2023-05-12T03:13:15;95213.09;;;7.23;100.00
42247;BME280;27913;42.722;23.268;2023-05-12T03:15:40;95186.91;;;7.15;100.00
42247;BME280;27913;42.722;23.268;2023-05-12T03:18:06;95270.22;;;7.61;100.00
42247;BME280;27913;42.722;23.268;2023-05-12T03:20:31;95148.44;;;6.82;100.00
42247;BME280;27913;42.722;23.268;2023-05-12T03:22:57;95206.88;;;7.24;100.00
42247;BME280;27913;42.722;23.268;2023-05-12T03:25:22;95219.81;;;7.25;100.00
42247;BME280;27913;42.722;23.268;2023-05-12T03:27:48;95274.00;;;7.67;100.00
42247;BME280;27913;42.722;23.268;2023-05-12T03:30:13;95274.97;;;7.66;100.00
42247;BME280;27913;42.722;23.268;2023-05-12T03:32:39;95274.97;;;7.66;100.00
42247;BME280;27913;42.722;23.268;2023-05-12T03:35:05;95219.66;;;7.27;100.00
42247;BME280;27913;42.722;23.268;2023-05-12T03:37:31;95272.66;;;7.54;100.00
42247;BME280;27913;42.722;23.268;2023-05-12T03:39:57;95282.97;;;7.56;100.00
42247;BME280;27913;42.722;23.268;2023-05-12T03:42:23;95280.69;;;7.61;100.00
42247;BME280;27913;42.722;23.268;2023-05-12T03:44:51;95288.88;;;7.58;100.00
42247;BME280;27913;42.722;23.268;2023-05-12T03:47:17;95294.25;;;7.56;100.00
42247;BME280;27913;42.722;23.268;2023-05-12T03:49:42;95231.41;;;7.23;100.00
42247;BME280;27913;42.722;23.268;2023-05-12T03:52:08;95245.81;;;7.35;100.00
42247;BME280;27913;42.722;23.268;2023-05-12T03:54:33;95227.66;;;7.34;100.00
42247;BME280;27913;42.722;23.268;2023-05-12T03:57:00;95280.38;;;7.72;100.00
42247;BME280;27913;42.722;23.268;2023-05-12T03:59:25;95286.59;;;7.71;100.00
42247;BME280;27913;42.722;23.268;2023-05-12T04:01:51;95282.00;;;7.73;100.00
42247;BME280;27913;42.722;23.268;2023-05-12T04:04:20;95279.06;;;7.68;100.00
42247;BME280;27913;42.722;23.268;2023-05-12T04:06:45;95297.25;;;7.78;100.00
42247;BME280;27913;42.722;23.268;2023-05-12T04:09:11;95159.25;;;6.95;100.00
42247;BME280;27913;42.722;23.268;2023-05-12T04:11:36;95291.81;;;7.71;100.00
42247;BME280;27913;42.722;23.268;2023-05-12T04:14:02;95309.84;;;7.83;100.00
42247;BME280;27913;42.722;23.268;2023-05-12T04:16:27;95265.63;;;7.71;100.00
42247;BME280;27913;42.722;23.268;2023-05-12T04:18:53;95200.66;;;7.33;100.00
42247;BME280;27913;42.722;23.268;2023-05-12T04:21:18;95213.28;;;7.46;99.97
42247;BME280;27913;42.722;23.268;2023-05-12T04:23:44;95273.34;;;7.90;99.41
42247;BME280;27913;42.722;23.268;2023-05-12T04:26:09;95211.31;;;7.48;98.50
42247;BME280;27913;42.722;23.268;2023-05-12T04:28:35;95303.81;;;8.07;99.12
42247;BME280;27913;42.722;23.268;2023-05-12T04:31:02;95308.53;;;8.12;98.59
42247;BME280;27913;42.722;23.268;2023-05-12T04:33:30;95303.78;;;8.16;98.62
42247;BME280;27913;42.722;23.268;2023-05-12T04:35:57;95118.41;;;7.03;98.36
42247;BME280;27913;42.722;23.268;2023-05-12T04:38:23;95279.25;;;8.08;98.27
42247;BME280;27913;42.722;23.268;2023-05-12T04:40:48;95055.09;;;6.57;97.43
42247;BME280;27913;42.722;23.268;2023-05-12T04:43:14;95308.06;;;8.17;97.96
42247;BME280;27913;42.722;23.268;2023-05-12T04:45:39;95306.75;;;8.04;98.07
42247;BME280;27913;42.722;23.268;2023-05-12T04:48:05;95230.16;;;7.60;98.47
42247;BME280;27913;42.722;23.268;2023-05-12T04:50:30;95142.44;;;7.06;98.34
42247;BME280;27913;42.722;23.268;2023-05-12T04:52:56;95181.84;;;7.21;97.15
42247;BME280;27913;42.722;23.268;2023-05-12T04:55:21;95309.34;;;7.96;97.82
42247;BME280;27913;42.722;23.268;2023-05-12T04:57:47;95308.72;;;7.94;98.55
42247;BME280;27913;42.722;23.268;2023-05-12T05:00:13;95212.78;;;7.51;98.61
42247;BME280;27913;42.722;23.268;2023-05-12T05:02:39;95309.53;;;8.19;100.00
42247;BME280;27913;42.722;23.268;2023-05-12T05:05:06;95268.94;;;7.90;99.41
42247;BME280;27913;42.722;23.268;2023-05-12T05:07:32;95315.75;;;8.27;98.14
42247;BME280;27913;42.722;23.268;2023-05-12T05:09:57;95306.91;;;8.36;97.80
42247;BME280;27913;42.722;23.268;2023-05-12T05:12:23;95310.19;;;8.30;97.46
42247;BME280;27913;42.722;23.268;2023-05-12T05:14:49;95316.25;;;8.30;97.07
42247;BME280;27913;42.722;23.268;2023-05-12T05:17:15;95309.03;;;8.41;96.64
42247;BME280;27913;42.722;23.268;2023-05-12T05:19:40;95139.50;;;7.26;96.00
42247;BME280;27913;42.722;23.268;2023-05-12T05:22:06;95307.56;;;8.46;96.85
42247;BME280;27913;42.722;23.268;2023-05-12T05:24:31;95307.56;;;8.46;95.71
42247;BME280;27913;42.722;23.268;2023-05-12T05:26:57;95304.94;;;8.46;95.31
42247;BME280;27913;42.722;23.268;2023-05-12T05:29:23;95320.97;;;8.52;95.48
42247;BME280;27913;42.722;23.268;2023-05-12T05:31:50;95186.63;;;7.59;94.62
42247;BME280;27913;42.722;23.268;2023-05-12T05:34:16;95244.69;;;8.05;93.93
42247;BME280;27913;42.722;23.268;2023-05-12T05:36:42;95304.78;;;8.40;94.55
42247;BME280;27913;42.722;23.268;2023-05-12T05:39:08;95296.09;;;8.39;94.36
42247;BME280;27913;42.722;23.268;2023-05-12T05:41:34;95320.47;;;8.65;93.79
42247;BME280;27913;42.722;23.268;2023-05-12T05:44:00;95325.75;;;8.56;93.38
42247;BME280;27913;42.722;23.268;2023-05-12T05:46:25;95284.16;;;8.28;93.51
42247;BME280;27913;42.722;23.268;2023-05-12T05:48:51;95238.16;;;8.09;94.10
42247;BME280;27913;42.722;23.268;2023-05-12T05:51:16;95261.72;;;8.34;92.75
42247;BME280;27913;42.722;23.268;2023-05-12T05:53:42;95327.88;;;8.69;92.81
42247;BME280;27913;42.722;23.268;2023-05-12T05:56:07;95263.78;;;8.47;92.78
42247;BME280;27913;42.722;23.268;2023-05-12T05:58:33;95326.81;;;8.96;92.50
42247;BME280;27913;42.722;23.268;2023-05-12T06:00:58;95327.25;;;9.08;91.83
42247;BME280;27913;42.722;23.268;2023-05-12T06:03:24;95166.59;;;8.17;90.96
42247;BME280;27913;42.722;23.268;2023-05-12T06:05:50;95332.03;;;9.04;91.25
42247;BME280;27913;42.722;23.268;2023-05-12T06:08:15;95315.47;;;9.03;90.67
42247;BME280;27913;42.722;23.268;2023-05-12T06:10:41;95338.03;;;9.21;90.68
42247;BME280;27913;42.722;23.268;2023-05-12T06:13:07;95299.59;;;8.97;90.56
42247;BME280;27913;42.722;23.268;2023-05-12T06:15:32;95142.38;;;8.15;89.76
42247;BME280;27913;42.722;23.268;2023-05-12T06:17:58;95271.88;;;9.02;89.51
42247;BME280;27913;42.722;23.268;2023-05-12T06:20:23;95111.81;;;7.90;89.43
42247;BME280;27913;42.722;23.268;2023-05-12T06:22:49;95255.50;;;8.92;89.35
42247;BME280;27913;42.722;23.268;2023-05-12T06:25:14;95224.59;;;8.70;87.89
42247;BME280;27913;42.722;23.268;2023-05-12T06:27:40;95342.19;;;9.47;88.27
42247;BME280;27913;42.722;23.268;2023-05-12T06:30:06;95345.16;;;9.44;87.43
42247;BME280;27913;42.722;23.268;2023-05-12T06:32:32;95346.91;;;9.20;89.18
42247;BME280;27913;42.722;23.268;2023-05-12T06:34:58;95309.25;;;9.04;88.80
42247;BME280;27913;42.722;23.268;2023-05-12T06:37:23;95223.31;;;8.66;88.04
42247;BME280;27913;42.722;23.268;2023-05-12T06:39:49;95307.84;;;9.25;88.07
42247;BME280;27913;42.722;23.268;2023-05-12T06:42:14;95362.47;;;9.62;87.44
42247;BME280;27913;42.722;23.268;2023-05-12T06:44:40;95353.63;;;9.54;88.06
42247;BME280;27913;42.722;23.268;2023-05-12T06:47:06;95357.56;;;9.59;86.91
42247;BME280;27913;42.722;23.268;2023-05-12T06:49:31;95123.69;;;8.18;86.61
42247;BME280;27913;42.722;23.268;2023-05-12T06:52:00;95154.38;;;8.49;85.81
42247;BME280;27913;42.722;23.268;2023-05-12T06:54:25;95359.78;;;9.78;86.01
42247;BME280;27913;42.722;23.268;2023-05-12T06:56:51;95328.97;;;9.64;85.57
42247;BME280;27913;42.722;23.268;2023-05-12T06:59:17;95356.66;;;9.98;84.75
42247;BME280;27913;42.722;23.268;2023-05-12T07:01:43;95299.38;;;9.47;85.61
42247;BME280;27913;42.722;23.268;2023-05-12T07:04:08;95326.13;;;9.74;85.21
42247;BME280;27913;42.722;23.268;2023-05-12T07:06:34;95291.56;;;9.62;83.80
42247;BME280;27913;42.722;23.268;2023-05-12T07:08:59;95298.06;;;9.74;83.89
42247;BME280;27913;42.722;23.268;2023-05-12T07:11:25;95282.94;;;9.76;83.16
42247;BME280;27913;42.722;23.268;2023-05-12T07:13:51;95358.78;;;10.03;82.31
42247;BME280;27913;42.722;23.268;2023-05-12T07:16:17;95364.97;;;10.10;83.10
42247;BME280;27913;42.722;23.268;2023-05-12T07:18:43;95264.53;;;9.53;82.85
42247;BME280;27913;42.722;23.268;2023-05-12T07:21:09;95359.03;;;10.17;82.88
42247;BME280;27913;42.722;23.268;2023-05-12T07:23:35;95323.75;;;10.11;82.71
42247;BME280;27913;42.722;23.268;2023-05-12T07:26:02;95372.16;;;10.40;82.28
42247;BME280;27913;42.722;23.268;2023-05-12T07:28:32;95365.53;;;10.44;81.51
42247;BME280;27913;42.722;23.268;2023-05-12T07:31:03;95362.88;;;10.53;80.83
42247;BME280;27913;42.722;23.268;2023-05-12T07:33:29;95297.84;;;10.23;80.00
42247;BME280;27913;42.722;23.268;2023-05-12T07:35:55;95247.50;;;9.96;79.16
42247;BME280;27913;42.722;23.268;2023-05-12T07:38:20;95348.19;;;10.58;79.44
42247;BME280;27913;42.722;23.268;2023-05-12T07:40:46;95165.25;;;9.33;79.79
42247;BME280;27913;42.722;23.268;2023-05-12T07:43:11;95239.38;;;9.82;80.19
42247;BME280;27913;42.722;23.268;2023-05-12T07:45:37;95375.06;;;10.69;79.89
42247;BME280;27913;42.722;23.268;2023-05-12T07:48:02;95285.06;;;10.20;80.69
42247;BME280;27913;42.722;23.268;2023-05-12T07:50:28;95248.19;;;10.13;80.25
42247;BME280;27913;42.722;23.268;2023-05-12T07:52:54;95366.38;;;10.98;79.72
42247;BME280;27913;42.722;23.268;2023-05-12T07:55:20;95275.75;;;10.71;78.90
42247;BME280;27913;42.722;23.268;2023-05-12T07:57:46;95355.75;;;11.37;78.74
42247;BME280;27913;42.722;23.268;2023-05-12T08:00:13;95355.66;;;11.60;77.14
42247;BME280;27913;42.722;23.268;2023-05-12T08:02:40;95233.19;;;10.82;76.27
42247;BME280;27913;42.722;23.268;2023-05-12T08:05:07;95329.53;;;11.81;75.74
42247;BME280;27913;42.722;23.268;2023-05-12T08:07:34;95347.72;;;12.13;75.26
42247;BME280;27913;42.722;23.268;2023-05-12T08:10:00;95356.31;;;12.22;75.58
42247;BME280;27913;42.722;23.268;2023-05-12T08:12:25;95355.25;;;12.38;73.89
42247;BME280;27913;42.722;23.268;2023-05-12T08:14:51;95346.69;;;12.36;73.88
42247;BME280;27913;42.722;23.268;2023-05-12T08:17:16;95357.25;;;12.36;72.96
42247;BME280;27913;42.722;23.268;2023-05-12T08:19:42;95310.16;;;12.11;72.93
42247;BME280;27913;42.722;23.268;2023-05-12T08:22:08;95246.38;;;12.00;72.19
42247;BME280;27913;42.722;23.268;2023-05-12T08:24:33;95296.56;;;12.58;70.84
42247;BME280;27913;42.722;23.268;2023-05-12T08:26:59;95250.19;;;12.41;69.58
42247;BME280;27913;42.722;23.268;2023-05-12T08:29:24;95357.25;;;13.22;69.53
42247;BME280;27913;42.722;23.268;2023-05-12T08:31:50;95356.31;;;13.36;68.78
42247;BME280;27913;42.722;23.268;2023-05-12T08:34:15;95306.81;;;13.10;68.32
42247;BME280;27913;42.722;23.268;2023-05-12T08:36:41;95271.19;;;12.92;67.96
42247;BME280;27913;42.722;23.268;2023-05-12T08:39:07;95241.84;;;12.66;67.21
42247;BME280;27913;42.722;23.268;2023-05-12T08:41:41;95237.38;;;12.38;67.98
42247;BME280;27913;42.722;23.268;2023-05-12T08:44:08;95136.69;;;11.70;67.65
42247;BME280;27913;42.722;23.268;2023-05-12T08:46:35;95310.69;;;12.78;68.81
42247;BME280;27913;42.722;23.268;2023-05-12T08:49:03;95296.97;;;12.90;68.03
42247;BME280;27913;42.722;23.268;2023-05-12T08:51:30;95358.78;;;13.45;66.93
42247;BME280;27913;42.722;23.268;2023-05-12T08:53:56;95302.19;;;12.83;68.16
42247;BME280;27913;42.722;23.268;2023-05-12T08:56:22;95312.34;;;12.51;68.02
42247;BME280;27913;42.722;23.268;2023-05-12T08:58:48;95219.09;;;12.08;68.34
42247;BME280;27913;42.722;23.268;2023-05-12T09:01:15;95314.88;;;12.66;68.48
42247;BME280;27913;42.722;23.268;2023-05-12T09:03:41;95362.94;;;12.90;67.80
42247;BME280;27913;42.722;23.268;2023-05-12T09:06:07;95349.06;;;13.10;66.74
42247;BME280;27913;42.722;23.268;2023-05-12T09:08:34;95330.38;;;12.76;67.37
42247;BME280;27913;42.722;23.268;2023-05-12T09:11:01;95219.97;;;12.44;66.15
42247;BME280;27913;42.722;23.268;2023-05-12T09:13:36;95271.19;;;12.92;65.61
42247;BME280;27913;42.722;23.268;2023-05-12T09:16:06;95278.41;;;13.12;65.17
42247;BME280;27913;42.722;23.268;2023-05-12T09:18:51;95292.31;;;13.34;64.28
42247;BME280;27913;42.722;23.268;2023-05-12T09:21:18;95335.78;;;13.81;64.14
42247;BME280;27913;42.722;23.268;2023-05-12T09:23:57;95336.78;;;13.73;63.86
42247;BME280;27913;42.722;23.268;2023-05-12T09:26:25;95332.34;;;13.94;63.34
42247;BME280;27913;42.722;23.268;2023-05-12T09:28:53;95337.06;;;14.12;61.18
42247;BME280;27913;42.722;23.268;2023-05-12T09:31:23;95335.88;;;14.21;61.16
42247;BME280;27913;42.722;23.268;2023-05-12T09:33:50;95202.72;;;13.46;59.96
42247;BME280;27913;42.722;23.268;2023-05-12T09:36:20;95329.34;;;14.37;59.37
42247;BME280;27913;42.722;23.268;2023-05-12T09:38:57;95283.78;;;14.22;59.00
42247;BME280;27913;42.722;23.268;2023-05-12T09:41:23;95335.06;;;14.68;58.29
42247;BME280;27913;42.722;23.268;2023-05-12T09:43:51;95218.25;;;13.90;58.45
42247;BME280;27913;42.722;23.268;2023-05-12T09:46:17;95334.66;;;14.71;59.12
42247;BME280;27913;42.722;23.268;2023-05-12T09:48:45;95346.28;;;14.91;58.78
42247;BME280;27913;42.722;23.268;2023-05-12T09:51:15;95339.56;;;14.81;58.89
42247;BME280;27913;42.722;23.268;2023-05-12T09:53:42;95338.94;;;14.86;57.88
42247;BME280;27913;42.722;23.268;2023-05-12T09:56:12;95334.84;;;14.97;57.93
42247;BME280;27913;42.722;23.268;2023-05-12T09:58:43;95289.47;;;14.66;57.01
42247;BME280;27913;42.722;23.268;2023-05-12T10:01:10;95327.69;;;15.04;57.41
42247;BME280;27913;42.722;23.268;2023-05-12T10:03:37;95328.50;;;15.12;57.12
42247;BME280;27913;42.722;23.268;2023-05-12T10:06:05;95319.91;;;15.30;56.46
42247;BME280;27913;42.722;23.268;2023-05-12T10:08:50;95304.41;;;15.33;55.52
42247;BME280;27913;42.722;23.268;2023-05-12T10:11:18;95320.69;;;15.44;55.62
42247;BME280;27913;42.722;23.268;2023-05-12T10:13:45;95216.72;;;14.96;55.49
42247;BME280;27913;42.722;23.268;2023-05-12T10:16:12;95240.09;;;15.13;55.70
42247;BME280;27913;42.722;23.268;2023-05-12T10:18:38;95311.44;;;15.53;56.23
42247;BME280;27913;42.722;23.268;2023-05-12T10:21:07;95310.66;;;15.53;57.03
42247;BME280;27913;42.722;23.268;2023-05-12T10:23:34;95226.09;;;14.99;56.15
42247;BME280;27913;42.722;23.268;2023-05-12T10:26:01;95313.81;;;15.75;55.95
42247;BME280;27913;42.722;23.268;2023-05-12T10:28:28;95213.22;;;15.09;55.29
42247;BME280;27913;42.722;23.268;2023-05-12T10:30:55;95214.63;;;15.12;55.26
42247;BME280;27913;42.722;23.268;2023-05-12T10:33:22;95258.88;;;15.50;56.00
42247;BME280;27913;42.722;23.268;2023-05-12T10:35:47;95251.53;;;15.52;55.84
42247;BME280;27913;42.722;23.268;2023-05-12T10:38:14;95301.59;;;15.67;54.58
42247;BME280;27913;42.722;23.268;2023-05-12T10:40:58;95255.00;;;15.53;54.54
42247;BME280;27913;42.722;23.268;2023-05-12T10:43:29;95297.25;;;15.80;54.12
42247;BME280;27913;42.722;23.268;2023-05-12T10:46:18;95306.66;;;15.76;54.76
42247;BME280;27913;42.722;23.268;2023-05-12T10:51:23;95296.53;;;16.05;54.18
42247;BME280;27913;42.722;23.268;2023-05-12T10:53:56;95216.38;;;15.64;53.64
42247;BME280;27913;42.722;23.268;2023-05-12T10:56:49;95245.38;;;15.91;52.61
42247;BME280;27913;42.722;23.268;2023-05-12T10:59:20;95249.00;;;16.03;53.27
42247;BME280;27913;42.722;23.268;2023-05-12T11:02:05;95203.44;;;15.81;52.74
42247;BME280;27913;42.722;23.268;2023-05-12T11:07:15;95209.38;;;16.09;51.96
42247;BME280;27913;42.722;23.268;2023-05-12T11:09:42;95285.72;;;16.76;52.37
42247;BME280;27913;42.722;23.268;2023-05-12T11:12:09;95261.28;;;16.74;51.95
42247;BME280;27913;42.722;23.268;2023-05-12T11:14:37;95235.94;;;16.53;50.75
42247;BME280;27913;42.722;23.268;2023-05-12T11:17:03;95291.38;;;17.06;51.17
42247;BME280;27913;42.722;23.268;2023-05-12T11:19:29;95287.91;;;17.05;50.82
42247;BME280;27913;42.722;23.268;2023-05-12T11:21:55;95289.81;;;16.98;48.14
42247;BME280;27913;42.722;23.268;2023-05-12T11:24:21;95291.72;;;16.90;47.44
42247;BME280;27913;42.722;23.268;2023-05-12T11:26:47;95291.81;;;16.84;49.10
42247;BME280;27913;42.722;23.268;2023-05-12T11:29:20;95285.19;;;16.93;49.08
42247;BME280;27913;42.722;23.268;2023-05-12T11:31:49;95295.13;;;16.79;49.85
42247;BME280;27913;42.722;23.268;2023-05-12T11:34:20;95292.22;;;16.36;50.71
42247;BME280;27913;42.722;23.268;2023-05-12T11:36:45;95094.28;;;15.33;49.14
42247;BME280;27913;42.722;23.268;2023-05-12T11:39:23;95203.72;;;15.98;49.41
42247;BME280;27913;42.722;23.268;2023-05-12T11:41:49;95303.81;;;16.42;50.81
42247;BME280;27913;42.722;23.268;2023-05-12T11:44:17;95295.09;;;16.35;49.52
42247;BME280;27913;42.722;23.268;2023-05-12T11:47:00;95246.03;;;15.86;49.50
42247;BME280;27913;42.722;23.268;2023-05-12T11:49:27;95230.06;;;15.93;49.72
42247;BME280;27913;42.722;23.268;2023-05-12T11:51:55;95222.97;;;15.87;49.88
42247;BME280;27913;42.722;23.268;2023-05-12T11:54:21;95288.78;;;16.36;49.03
42247;BME280;27913;42.722;23.268;2023-05-12T11:56:50;95081.03;;;15.01;49.47
42247;BME280;27913;42.722;23.268;2023-05-12T11:59:33;95289.84;;;16.28;49.23
42247;BME280;27913;42.722;23.268;2023-05-12T12:02:00;95241.53;;;15.87;49.41
42247;BME280;27913;42.722;23.268;2023-05-12T12:06:59;95213.06;;;15.75;48.59
42247;BME280;27913;42.722;23.268;2023-05-12T12:09:36;95286.34;;;16.27;48.63
42247;BME280;27913;42.722;23.268;2023-05-12T12:12:03;95186.31;;;15.77;49.28
42247;BME280;27913;42.722;23.268;2023-05-12T12:14:30;95284.41;;;16.41;49.36
42247;BME280;27913;42.722;23.268;2023-05-12T12:16:57;95291.78;;;16.39;48.99
42247;BME280;27913;42.722;23.268;2023-05-12T12:19:23;95292.91;;;16.50;48.65
42247;BME280;27913;42.722;23.268;2023-05-12T12:21:49;95297.69;;;16.41;49.52
42247;BME280;27913;42.722;23.268;2023-05-12T12:24:15;95265.50;;;16.05;49.59
42247;BME280;27913;42.722;23.268;2023-05-12T12:26:40;95295.69;;;16.04;50.71
42247;BME280;27913;42.722;23.268;2023-05-12T12:29:06;95293.31;;;15.89;51.27
42247;BME280;27913;42.722;23.268;2023-05-12T12:31:31;95296.03;;;15.82;51.68
42247;BME280;27913;42.722;23.268;2023-05-12T12:33:58;95287.75;;;15.98;51.87
42247;BME280;27913;42.722;23.268;2023-05-12T12:36:24;95290.06;;;15.87;51.08
42247;BME280;27913;42.722;23.268;2023-05-12T12:38:49;95119.03;;;14.74;51.91
42247;BME280;27913;42.722;23.268;2023-05-12T12:41:15;95292.75;;;15.80;51.98
42247;BME280;27913;42.722;23.268;2023-05-12T12:43:40;95291.16;;;15.79;51.85
42247;BME280;27913;42.722;23.268;2023-05-12T12:46:06;95290.97;;;15.74;52.08
42247;BME280;27913;42.722;23.268;2023-05-12T12:48:32;95290.81;;;15.62;51.32
42247;BME280;27913;42.722;23.268;2023-05-12T12:50:58;95282.09;;;15.55;50.58
42247;BME280;27913;42.722;23.268;2023-05-12T12:53:24;95212.81;;;15.05;52.10
42247;BME280;27913;42.722;23.268;2023-05-12T12:55:49;95282.47;;;15.58;52.62
42247;BME280;27913;42.722;23.268;2023-05-12T12:58:15;95265.25;;;15.42;52.71
42247;BME280;27913;42.722;23.268;2023-05-12T13:00:40;95228.06;;;15.10;52.65
42247;BME280;27913;42.722;23.268;2023-05-12T13:03:06;95288.19;;;15.55;52.16